sensor_id;sensor_type;location;lat;lon;timestamp;temperature;humidity
7684;DHT22;3884;48.616;12.872;2024-01-15T00:02:07;-3.70;99.90
7684;DHT22;3884;48.616;12.872;2024-01-15T00:04:36;-3.80;99.90
7684;DHT22;3884;48.616;12.872;2024-01-15T00:07:05;-3.80;99.90
7684;DHT22;3884;48.616;12.872;2024-01-15T00:09:32;-3.80;99.90
7684;DHT22;3884;48.616;12.872;2024-01-15T00:12:00;-3.90;99.90
7684;DHT22;3884;48.616;12.872;2024-01-15T00:14:27;-3.80;1.00
7684;DHT22;3884;48.616;12.872;2024-01-15T00:16:54;-3.70;1.00
7684;DHT22;3884;48.616;12.872;2024-01-15T00:19:21;-3.70;99.90
7684;DHT22;3884;48.616;12.872;2024-01-15T00:21:49;-3.70;1.00
7684;DHT22;3884;48.616;12.872;2024-01-15T00:24:17;-3.70;99.90
7684;DHT22;3884;48.616;12.872;2024-01-15T00:26:45;-3.80;99.90
7684;DHT22;3884;48.616;12.872;2024-01-15T00:29:11;-3.70;99.90
7684;DHT22;3884;48.616;12.872;2024-01-15T00:31:38;-3.70;99.90
7684;DHT22;3884;48.616;12.872;2024-01-15T00:34:05;-3.80;99.90
7684;DHT22;3884;48.616;12.872;2024-01-15T00:36:32;-3.80;99.90
7684;DHT22;3884;48.616;12.872;2024-01-15T00:38:59;-3.80;99.90
7684;DHT22;3884;48.616;12.872;2024-01-15T00:41:27;-3.80;99.90
7684;DHT22;3884;48.616;12.872;2024-01-15T00:43:54;-3.80;99.90
7684;DHT22;3884;48.616;12.872;2024-01-15T00:46:21;-3.90;90.90
7684;DHT22;3884;48.616;12.872;2024-01-15T00:48:48;-3.90;99.90
7684;DHT22;3884;48.616;12.872;2024-01-15T00:51:14;-3.90;95.60
7684;DHT22;3884;48.616;12.872;2024-01-15T00:53:41;-4.10;91.60
7684;DHT22;3884;48.616;12.872;2024-01-15T00:56:08;-4.20;99.90
7684;DHT22;3884;48.616;12.872;2024-01-15T00:58:37;-4.40;99.90
7684;DHT22;3884;48.616;12.872;2024-01-15T01:01:03;-4.60;99.90
7684;DHT22;3884;48.616;12.872;2024-01-15T01:03:30;-4.60;99.90
7684;DHT22;3884;48.616;12.872;2024-01-15T01:05:57;-4.60;99.90
7684;DHT22;3884;48.616;12.872;2024-01-15T01:08:24;-4.60;99.90
7684;DHT22;3884;48.616;12.872;2024-01-15T01:10:51;-4.40;1.00
7684;DHT22;3884;48.616;12.872;2024-01-15T01:13:17;-4.20;1.00
7684;DHT22;3884;48.616;12.872;2024-01-15T01:15:46;-4.10;99.90
7684;DHT22;3884;48.616;12.872;2024-01-15T01:18:12;-4.00;99.90
7684;DHT22;3884;48.616;12.872;2024-01-15T01:20:39;-4.10;99.90
7684;DHT22;3884;48.616;12.872;2024-01-15T01:23:06;-4.10;99.90
7684;DHT22;3884;48.616;12.872;2024-01-15T01:25:33;-4.00;99.90
7684;DHT22;3884;48.616;12.872;2024-01-15T01:28:00;-3.80;99.90
7684;DHT22;3884;48.616;12.872;2024-01-15T01:30:26;-3.50;99.90
7684;DHT22;3884;48.616;12.872;2024-01-15T01:32:55;-3.20;70.40
7684;DHT22;3884;48.616;12.872;2024-01-15T01:35:22;-2.90;1.00
7684;DHT22;3884;48.616;12.872;2024-01-15T01:37:49;-2.60;99.90
7684;DHT22;3884;48.616;12.872;2024-01-15T01:40:16;-2.50;34.40
7684;DHT22;3884;48.616;12.872;2024-01-15T01:42:43;-2.40;1.00
7684;DHT22;3884;48.616;12.872;2024-01-15T01:45:11;-2.40;1.00
7684;DHT22;3884;48.616;12.872;2024-01-15T01:47:38;-2.40;1.00
7684;DHT22;3884;48.616;12.872;2024-01-15T01:50:06;-2.40;1.00
7684;DHT22;3884;48.616;12.872;2024-01-15T01:52:34;-2.40;1.00
7684;DHT22;3884;48.616;12.872;2024-01-15T01:55:03;-2.50;41.50
7684;DHT22;3884;48.616;12.872;2024-01-15T01:57:31;-2.50;99.90
7684;DHT22;3884;48.616;12.872;2024-01-15T01:59:59;-2.50;3.80
7684;DHT22;3884;48.616;12.872;2024-01-15T02:02:26;-2.50;1.00
7684;DHT22;3884;48.616;12.872;2024-01-15T02:04:53;-2.50;2.50
7684;DHT22;3884;48.616;12.872;2024-01-15T02:07:21;-2.50;1.00
7684;DHT22;3884;48.616;12.872;2024-01-15T02:09:50;-2.50;18.50
7684;DHT22;3884;48.616;12.872;2024-01-15T02:12:16;-2.50;8.90
7684;DHT22;3884;48.616;12.872;2024-01-15T02:14:43;-2.50;1.00
7684;DHT22;3884;48.616;12.872;2024-01-15T02:17:10;-2.50;99.90
7684;DHT22;3884;48.616;12.872;2024-01-15T02:19:37;-2.50;20.90
7684;DHT22;3884;48.616;12.872;2024-01-15T02:22:05;-2.50;1.00
7684;DHT22;3884;48.616;12.872;2024-01-15T02:24:33;-2.60;1.00
7684;DHT22;3884;48.616;12.872;2024-01-15T02:27:00;-2.60;11.70
7684;DHT22;3884;48.616;12.872;2024-01-15T02:29:27;-2.60;1.00
7684;DHT22;3884;48.616;12.872;2024-01-15T02:31:54;-2.60;99.90
7684;DHT22;3884;48.616;12.872;2024-01-15T02:34:21;-2.60;1.00
7684;DHT22;3884;48.616;12.872;2024-01-15T02:36:48;-2.60;1.00
7684;DHT22;3884;48.616;12.872;2024-01-15T02:39:15;-2.60;1.00
7684;DHT22;3884;48.616;12.872;2024-01-15T02:41:43;-2.60;1.00
7684;DHT22;3884;48.616;12.872;2024-01-15T02:44:09;-2.60;1.00
7684;DHT22;3884;48.616;12.872;2024-01-15T02:46:36;-2.60;1.00
7684;DHT22;3884;48.616;12.872;2024-01-15T02:49:03;-2.60;1.00
7684;DHT22;3884;48.616;12.872;2024-01-15T02:51:30;-2.60;1.00
7684;DHT22;3884;48.616;12.872;2024-01-15T02:53:57;-2.60;1.00
7684;DHT22;3884;48.616;12.872;2024-01-15T02:56:24;-2.60;1.00
7684;DHT22;3884;48.616;12.872;2024-01-15T02:58:52;-2.50;1.00
7684;DHT22;3884;48.616;12.872;2024-01-15T03:01:19;-2.50;1.00
7684;DHT22;3884;48.616;12.872;2024-01-15T03:03:46;-2.50;1.00
7684;DHT22;3884;48.616;12.872;2024-01-15T03:06:13;-2.50;1.00
7684;DHT22;3884;48.616;12.872;2024-01-15T03:08:39;-2.50;1.00
7684;DHT22;3884;48.616;12.872;2024-01-15T03:11:06;-2.50;1.00
7684;DHT22;3884;48.616;12.872;2024-01-15T03:13:35;-2.60;1.00
7684;DHT22;3884;48.616;12.872;2024-01-15T03:16:04;-2.50;1.00
7684;DHT22;3884;48.616;12.872;2024-01-15T03:18:31;-2.40;1.00
7684;DHT22;3884;48.616;12.872;2024-01-15T03:20:58;-2.40;1.00
7684;DHT22;3884;48.616;12.872;2024-01-15T03:23:26;-2.40;1.00
7684;DHT22;3884;48.616;12.872;2024-01-15T03:25:53;-2.50;1.00
7684;DHT22;3884;48.616;12.872;2024-01-15T03:28:19;-2.40;1.00
7684;DHT22;3884;48.616;12.872;2024-01-15T03:30:46;-2.50;1.00
7684;DHT22;3884;48.616;12.872;2024-01-15T03:33:14;-2.50;1.00
7684;DHT22;3884;48.616;12.872;2024-01-15T03:35:42;-2.50;1.00
7684;DHT22;3884;48.616;12.872;2024-01-15T03:38:09;-2.50;1.00
7684;DHT22;3884;48.616;12.872;2024-01-15T03:40:36;-2.60;1.00
7684;DHT22;3884;48.616;12.872;2024-01-15T03:43:03;-2.60;1.00
7684;DHT22;3884;48.616;12.872;2024-01-15T03:45:29;-2.60;1.00
7684;DHT22;3884;48.616;12.872;2024-01-15T03:47:56;-2.70;1.00
7684;DHT22;3884;48.616;12.872;2024-01-15T03:50:25;-2.70;1.00
7684;DHT22;3884;48.616;12.872;2024-01-15T03:52:51;-2.80;1.00
7684;DHT22;3884;48.616;12.872;2024-01-15T03:55:18;-2.80;1.00
7684;DHT22;3884;48.616;12.872;2024-01-15T03:57:45;-2.80;1.00
7684;DHT22;3884;48.616;12.872;2024-01-15T04:00:14;-2.80;1.00
7684;DHT22;3884;48.616;12.872;2024-01-15T04:02:42;-2.80;1.00
7684;DHT22;3884;48.616;12.872;2024-01-15T04:05:10;-2.80;1.00
7684;DHT22;3884;48.616;12.872;2024-01-15T04:07:38;-2.90;1.00
7684;DHT22;3884;48.616;12.872;2024-01-15T04:10:05;-2.80;1.00
7684;DHT22;3884;48.616;12.872;2024-01-15T04:12:33;-2.80;1.00
7684;DHT22;3884;48.616;12.872;2024-01-15T04:14:59;-2.80;1.00
7684;DHT22;3884;48.616;12.872;2024-01-15T04:17:27;-2.80;1.00
7684;DHT22;3884;48.616;12.872;2024-01-15T04:19:54;-2.70;1.00
7684;DHT22;3884;48.616;12.872;2024-01-15T04:22:21;-2.70;99.90
7684;DHT22;3884;48.616;12.872;2024-01-15T04:24:49;-2.60;99.90
7684;DHT22;3884;48.616;12.872;2024-01-15T04:27:16;-2.60;99.90
7684;DHT22;3884;48.616;12.872;2024-01-15T04:29:42;-2.60;77.60
7684;DHT22;3884;48.616;12.872;2024-01-15T04:32:10;-2.60;99.90
7684;DHT22;3884;48.616;12.872;2024-01-15T04:34:37;-2.70;99.90
7684;DHT22;3884;48.616;12.872;2024-01-15T04:37:04;-2.70;99.90
7684;DHT22;3884;48.616;12.872;2024-01-15T04:39:31;-2.60;99.90
7684;DHT22;3884;48.616;12.872;2024-01-15T04:41:59;-2.70;99.90
7684;DHT22;3884;48.616;12.872;2024-01-15T04:44:26;-2.70;1.00
7684;DHT22;3884;48.616;12.872;2024-01-15T04:46:52;-2.70;1.00
7684;DHT22;3884;48.616;12.872;2024-01-15T04:49:19;-2.70;1.00
7684;DHT22;3884;48.616;12.872;2024-01-15T04:51:46;-2.70;1.00
7684;DHT22;3884;48.616;12.872;2024-01-15T04:54:13;-2.60;1.00
7684;DHT22;3884;48.616;12.872;2024-01-15T04:56:43;-2.60;1.00
7684;DHT22;3884;48.616;12.872;2024-01-15T04:59:11;-2.60;1.00
7684;DHT22;3884;48.616;12.872;2024-01-15T05:01:38;-2.60;1.00
7684;DHT22;3884;48.616;12.872;2024-01-15T05:04:05;-2.60;1.00
7684;DHT22;3884;48.616;12.872;2024-01-15T05:06:31;-2.50;99.90
7684;DHT22;3884;48.616;12.872;2024-01-15T05:08:58;-2.50;99.90
7684;DHT22;3884;48.616;12.872;2024-01-15T05:11:26;-2.50;99.90
7684;DHT22;3884;48.616;12.872;2024-01-15T05:13:52;-2.40;1.40
7684;DHT22;3884;48.616;12.872;2024-01-15T05:16:21;-2.40;1.00
7684;DHT22;3884;48.616;12.872;2024-01-15T05:18:48;-2.30;1.00
7684;DHT22;3884;48.616;12.872;2024-01-15T05:21:14;-2.40;99.90
7684;DHT22;3884;48.616;12.872;2024-01-15T05:23:41;-2.30;1.00
7684;DHT22;3884;48.616;12.872;2024-01-15T05:26:08;-2.30;99.90
7684;DHT22;3884;48.616;12.872;2024-01-15T05:28:35;-2.30;1.00
7684;DHT22;3884;48.616;12.872;2024-01-15T05:31:02;-2.30;99.90
7684;DHT22;3884;48.616;12.872;2024-01-15T05:33:31;-2.20;99.90
7684;DHT22;3884;48.616;12.872;2024-01-15T05:35:57;-2.30;99.90
7684;DHT22;3884;48.616;12.872;2024-01-15T05:38:25;-2.20;48.50
7684;DHT22;3884;48.616;12.872;2024-01-15T05:40:52;-2.20;91.50
7684;DHT22;3884;48.616;12.872;2024-01-15T05:43:18;-2.10;1.00
7684;DHT22;3884;48.616;12.872;2024-01-15T05:45:45;-2.10;99.90
7684;DHT22;3884;48.616;12.872;2024-01-15T05:48:13;-2.20;99.90
7684;DHT22;3884;48.616;12.872;2024-01-15T05:50:41;-2.10;1.00
7684;DHT22;3884;48.616;12.872;2024-01-15T05:53:08;-2.10;1.00
7684;DHT22;3884;48.616;12.872;2024-01-15T05:55:36;-2.10;1.00
7684;DHT22;3884;48.616;12.872;2024-01-15T05:58:03;-2.10;1.00
7684;DHT22;3884;48.616;12.872;2024-01-15T06:00:31;-2.10;99.90
7684;DHT22;3884;48.616;12.872;2024-01-15T06:02:58;-2.10;99.90
7684;DHT22;3884;48.616;12.872;2024-01-15T06:05:25;-2.00;1.00
7684;DHT22;3884;48.616;12.872;2024-01-15T06:07:53;-2.00;99.90
7684;DHT22;3884;48.616;12.872;2024-01-15T06:10:20;-1.90;1.00
7684;DHT22;3884;48.616;12.872;2024-01-15T06:12:47;-1.90;1.00
7684;DHT22;3884;48.616;12.872;2024-01-15T06:15:14;-2.00;95.30
7684;DHT22;3884;48.616;12.872;2024-01-15T06:17:41;-1.90;99.90
7684;DHT22;3884;48.616;12.872;2024-01-15T06:20:08;-1.90;99.90
7684;DHT22;3884;48.616;12.872;2024-01-15T06:22:35;-2.00;1.00
7684;DHT22;3884;48.616;12.872;2024-01-15T06:25:07;-1.90;1.00
7684;DHT22;3884;48.616;12.872;2024-01-15T06:27:34;-2.00;99.90
7684;DHT22;3884;48.616;12.872;2024-01-15T06:30:01;-2.00;99.90
7684;DHT22;3884;48.616;12.872;2024-01-15T06:32:28;-2.10;99.90
7684;DHT22;3884;48.616;12.872;2024-01-15T06:34:56;-2.00;81.80
7684;DHT22;3884;48.616;12.872;2024-01-15T06:37:23;-1.90;99.90
7684;DHT22;3884;48.616;12.872;2024-01-15T06:39:50;-1.80;1.00
7684;DHT22;3884;48.616;12.872;2024-01-15T06:42:18;-1.70;1.00
7684;DHT22;3884;48.616;12.872;2024-01-15T06:44:47;-1.70;1.00
7684;DHT22;3884;48.616;12.872;2024-01-15T06:47:14;-1.60;99.90
7684;DHT22;3884;48.616;12.872;2024-01-15T06:49:43;-1.60;99.90
7684;DHT22;3884;48.616;12.872;2024-01-15T06:52:10;-1.60;42.70
7684;DHT22;3884;48.616;12.872;2024-01-15T06:54:37;-1.60;99.90
7684;DHT22;3884;48.616;12.872;2024-01-15T06:57:04;-1.60;1.00
7684;DHT22;3884;48.616;12.872;2024-01-15T06:59:33;-1.60;1.00
7684;DHT22;3884;48.616;12.872;2024-01-15T07:02:01;-1.50;1.00
7684;DHT22;3884;48.616;12.872;2024-01-15T07:04:28;-1.50;99.90
7684;DHT22;3884;48.616;12.872;2024-01-15T07:06:55;-1.50;99.90
7684;DHT22;3884;48.616;12.872;2024-01-15T07:09:22;-1.40;99.90
7684;DHT22;3884;48.616;12.872;2024-01-15T07:11:49;-1.30;99.90
7684;DHT22;3884;48.616;12.872;2024-01-15T07:14:17;-1.40;1.00
7684;DHT22;3884;48.616;12.872;2024-01-15T07:16:45;-1.40;99.90
7684;DHT22;3884;48.616;12.872;2024-01-15T07:19:12;-1.40;17.00
7684;DHT22;3884;48.616;12.872;2024-01-15T07:21:38;-1.30;1.00
7684;DHT22;3884;48.616;12.872;2024-01-15T07:24:08;-1.30;1.00
7684;DHT22;3884;48.616;12.872;2024-01-15T07:26:36;-1.30;1.00
7684;DHT22;3884;48.616;12.872;2024-01-15T07:29:03;-1.20;99.90
7684;DHT22;3884;48.616;12.872;2024-01-15T07:31:30;-1.20;99.90
7684;DHT22;3884;48.616;12.872;2024-01-15T07:33:58;-0.70;1.00
7684;DHT22;3884;48.616;12.872;2024-01-15T07:36:25;-1.20;1.00
7684;DHT22;3884;48.616;12.872;2024-01-15T07:38:52;-1.10;99.90
7684;DHT22;3884;48.616;12.872;2024-01-15T07:41:19;-1.10;99.90
7684;DHT22;3884;48.616;12.872;2024-01-15T07:43:46;-1.10;99.90
7684;DHT22;3884;48.616;12.872;2024-01-15T07:46:13;-1.10;99.90
7684;DHT22;3884;48.616;12.872;2024-01-15T07:48:39;-1.10;99.90
7684;DHT22;3884;48.616;12.872;2024-01-15T07:51:08;-1.10;99.90
7684;DHT22;3884;48.616;12.872;2024-01-15T07:53:34;-1.10;99.90
7684;DHT22;3884;48.616;12.872;2024-01-15T07:56:01;-1.10;99.90
7684;DHT22;3884;48.616;12.872;2024-01-15T07:58:28;-1.10;99.90
7684;DHT22;3884;48.616;12.872;2024-01-15T08:00:56;-1.10;69.70
7684;DHT22;3884;48.616;12.872;2024-01-15T08:03:22;-1.20;99.90
7684;DHT22;3884;48.616;12.872;2024-01-15T08:05:49;-1.10;90.30
7684;DHT22;3884;48.616;12.872;2024-01-15T08:08:20;-1.00;5.70
7684;DHT22;3884;48.616;12.872;2024-01-15T08:10:47;-1.00;1.00
7684;DHT22;3884;48.616;12.872;2024-01-15T08:13:14;-0.90;1.00
7684;DHT22;3884;48.616;12.872;2024-01-15T08:15:41;-1.00;1.00
7684;DHT22;3884;48.616;12.872;2024-01-15T08:18:09;-0.80;1.00
7684;DHT22;3884;48.616;12.872;2024-01-15T08:20:36;-1.00;1.00
7684;DHT22;3884;48.616;12.872;2024-01-15T08:23:03;-0.90;1.00
7684;DHT22;3884;48.616;12.872;2024-01-15T08:25:31;-1.00;1.00
7684;DHT22;3884;48.616;12.872;2024-01-15T08:27:58;-0.90;1.00
7684;DHT22;3884;48.616;12.872;2024-01-15T08:30:25;-0.90;1.00
7684;DHT22;3884;48.616;12.872;2024-01-15T08:32:53;-0.90;1.00
7684;DHT22;3884;48.616;12.872;2024-01-15T08:35:20;-0.90;1.00
7684;DHT22;3884;48.616;12.872;2024-01-15T08:37:48;-0.90;1.00
7684;DHT22;3884;48.616;12.872;2024-01-15T08:40:15;-0.90;1.00
7684;DHT22;3884;48.616;12.872;2024-01-15T08:42:44;-0.90;1.00
7684;DHT22;3884;48.616;12.872;2024-01-15T08:45:12;-0.80;1.00
7684;DHT22;3884;48.616;12.872;2024-01-15T08:47:40;-0.90;1.00
7684;DHT22;3884;48.616;12.872;2024-01-15T08:50:08;-0.90;1.00
7684;DHT22;3884;48.616;12.872;2024-01-15T08:52:36;-0.80;1.00
7684;DHT22;3884;48.616;12.872;2024-01-15T08:55:03;-0.80;1.00
7684;DHT22;3884;48.616;12.872;2024-01-15T08:57:32;-0.70;1.00
7684;DHT22;3884;48.616;12.872;2024-01-15T09:00:01;-0.60;1.00
7684;DHT22;3884;48.616;12.872;2024-01-15T09:02:29;-0.40;1.00
7684;DHT22;3884;48.616;12.872;2024-01-15T09:04:56;-0.40;1.00
7684;DHT22;3884;48.616;12.872;2024-01-15T09:07:23;-0.30;1.00
7684;DHT22;3884;48.616;12.872;2024-01-15T09:09:51;-0.30;1.00
7684;DHT22;3884;48.616;12.872;2024-01-15T09:12:17;-0.30;1.00
7684;DHT22;3884;48.616;12.872;2024-01-15T09:14:46;-0.20;99.90
7684;DHT22;3884;48.616;12.872;2024-01-15T09:17:14;-0.20;99.90
7684;DHT22;3884;48.616;12.872;2024-01-15T09:19:41;-0.20;99.90
7684;DHT22;3884;48.616;12.872;2024-01-15T09:22:08;-0.20;99.90
7684;DHT22;3884;48.616;12.872;2024-01-15T09:24:36;-0.10;99.90
7684;DHT22;3884;48.616;12.872;2024-01-15T09:27:03;-0.10;99.90
7684;DHT22;3884;48.616;12.872;2024-01-15T09:29:30;-0.20;99.90
7684;DHT22;3884;48.616;12.872;2024-01-15T09:31:57;-0.20;99.90
7684;DHT22;3884;48.616;12.872;2024-01-15T09:34:25;-0.10;99.90
7684;DHT22;3884;48.616;12.872;2024-01-15T09:36:52;-0.10;99.90
7684;DHT22;3884;48.616;12.872;2024-01-15T09:39:19;0.00;99.90
7684;DHT22;3884;48.616;12.872;2024-01-15T09:41:47;-0.10;99.90
7684;DHT22;3884;48.616;12.872;2024-01-15T09:44:15;-0.10;99.90
7684;DHT22;3884;48.616;12.872;2024-01-15T09:46:43;0.00;99.90
7684;DHT22;3884;48.616;12.872;2024-01-15T09:49:10;0.00;99.90
7684;DHT22;3884;48.616;12.872;2024-01-15T09:51:39;0.00;99.90
7684;DHT22;3884;48.616;12.872;2024-01-15T09:54:07;0.00;99.90
7684;DHT22;3884;48.616;12.872;2024-01-15T09:56:39;-0.10;99.90
7684;DHT22;3884;48.616;12.872;2024-01-15T09:59:07;0.10;99.90
7684;DHT22;3884;48.616;12.872;2024-01-15T10:01:36;0.00;99.90
7684;DHT22;3884;48.616;12.872;2024-01-15T10:04:05;0.20;99.90
7684;DHT22;3884;48.616;12.872;2024-01-15T10:06:32;0.20;99.90
7684;DHT22;3884;48.616;12.872;2024-01-15T10:09:01;0.20;99.90
7684;DHT22;3884;48.616;12.872;2024-01-15T10:11:30;0.20;99.90
7684;DHT22;3884;48.616;12.872;2024-01-15T10:13:58;0.20;99.90
7684;DHT22;3884;48.616;12.872;2024-01-15T10:16:27;0.30;99.90
7684;DHT22;3884;48.616;12.872;2024-01-15T10:18:54;0.30;99.90
7684;DHT22;3884;48.616;12.872;2024-01-15T10:21:21;0.30;99.90
7684;DHT22;3884;48.616;12.872;2024-01-15T10:23:52;0.40;99.90
7684;DHT22;3884;48.616;12.872;2024-01-15T10:26:24;0.50;99.90
7684;DHT22;3884;48.616;12.872;2024-01-15T10:28:51;0.50;99.90
7684;DHT22;3884;48.616;12.872;2024-01-15T10:31:19;0.50;99.90
7684;DHT22;3884;48.616;12.872;2024-01-15T10:33:47;0.60;99.90
7684;DHT22;3884;48.616;12.872;2024-01-15T10:36:16;0.60;99.90
7684;DHT22;3884;48.616;12.872;2024-01-15T10:38:43;0.70;99.90
7684;DHT22;3884;48.616;12.872;2024-01-15T10:41:10;0.70;99.90
7684;DHT22;3884;48.616;12.872;2024-01-15T10:43:38;0.70;99.90
7684;DHT22;3884;48.616;12.872;2024-01-15T10:46:07;0.70;99.90
7684;DHT22;3884;48.616;12.872;2024-01-15T10:48:34;0.70;99.90
7684;DHT22;3884;48.616;12.872;2024-01-15T10:51:01;0.70;99.90
7684;DHT22;3884;48.616;12.872;2024-01-15T10:53:37;0.80;99.90
7684;DHT22;3884;48.616;12.872;2024-01-15T10:56:05;0.80;99.90
7684;DHT22;3884;48.616;12.872;2024-01-15T10:58:34;0.80;99.90
7684;DHT22;3884;48.616;12.872;2024-01-15T11:01:03;0.90;99.90
7684;DHT22;3884;48.616;12.872;2024-01-15T11:03:31;0.80;99.90
7684;DHT22;3884;48.616;12.872;2024-01-15T11:05:57;1.00;99.90
7684;DHT22;3884;48.616;12.872;2024-01-15T11:08:26;1.00;99.90
7684;DHT22;3884;48.616;12.872;2024-01-15T11:10:53;1.00;99.90
7684;DHT22;3884;48.616;12.872;2024-01-15T11:13:21;1.00;99.90
7684;DHT22;3884;48.616;12.872;2024-01-15T11:15:55;1.10;99.90
7684;DHT22;3884;48.616;12.872;2024-01-15T11:18:23;1.10;99.90
7684;DHT22;3884;48.616;12.872;2024-01-15T11:21:25;1.10;99.90
7684;DHT22;3884;48.616;12.872;2024-01-15T11:23:54;1.10;99.90
7684;DHT22;3884;48.616;12.872;2024-01-15T11:26:34;1.10;99.90
7684;DHT22;3884;48.616;12.872;2024-01-15T11:29:03;1.10;99.90
7684;DHT22;3884;48.616;12.872;2024-01-15T11:32:04;1.10;99.90
7684;DHT22;3884;48.616;12.872;2024-01-15T11:34:52;1.20;99.90
7684;DHT22;3884;48.616;12.872;2024-01-15T11:37:19;1.20;99.90
7684;DHT22;3884;48.616;12.872;2024-01-15T11:39:47;1.30;99.90
7684;DHT22;3884;48.616;12.872;2024-01-15T11:42:14;1.30;99.90
7684;DHT22;3884;48.616;12.872;2024-01-15T11:44:42;1.30;99.90
7684;DHT22;3884;48.616;12.872;2024-01-15T11:47:11;1.30;99.90
7684;DHT22;3884;48.616;12.872;2024-01-15T11:49:59;1.20;99.90
7684;DHT22;3884;48.616;12.872;2024-01-15T11:52:31;1.20;99.90
7684;DHT22;3884;48.616;12.872;2024-01-15T11:55:02;1.20;99.90
7684;DHT22;3884;48.616;12.872;2024-01-15T11:57:40;1.30;99.90
7684;DHT22;3884;48.616;12.872;2024-01-15T12:00:09;1.20;99.90
7684;DHT22;3884;48.616;12.872;2024-01-15T12:02:41;1.20;99.90
7684;DHT22;3884;48.616;12.872;2024-01-15T12:05:10;1.20;99.90
7684;DHT22;3884;48.616;12.872;2024-01-15T12:07:38;1.20;99.90
7684;DHT22;3884;48.616;12.872;2024-01-15T12:10:09;1.30;99.90
7684;DHT22;3884;48.616;12.872;2024-01-15T12:12:58;1.30;99.90
7684;DHT22;3884;48.616;12.872;2024-01-15T12:15:26;1.30;99.90
7684;DHT22;3884;48.616;12.872;2024-01-15T12:17:55;1.30;99.90
7684;DHT22;3884;48.616;12.872;2024-01-15T12:20:25;1.30;99.90
7684;DHT22;3884;48.616;12.872;2024-01-15T12:22:52;1.30;99.90
7684;DHT22;3884;48.616;12.872;2024-01-15T12:25:18;1.40;99.90
7684;DHT22;3884;48.616;12.872;2024-01-15T12:27:46;1.40;99.90
7684;DHT22;3884;48.616;12.872;2024-01-15T12:30:13;1.40;99.90
7684;DHT22;3884;48.616;12.872;2024-01-15T12:32:40;1.50;99.90
7684;DHT22;3884;48.616;12.872;2024-01-15T12:35:08;1.60;99.90
7684;DHT22;3884;48.616;12.872;2024-01-15T12:37:36;1.60;99.90
7684;DHT22;3884;48.616;12.872;2024-01-15T12:40:04;1.80;99.90
7684;DHT22;3884;48.616;12.872;2024-01-15T12:42:32;1.80;99.90
7684;DHT22;3884;48.616;12.872;2024-01-15T12:45:00;1.80;99.90
7684;DHT22;3884;48.616;12.872;2024-01-15T12:47:26;1.70;99.90
7684;DHT22;3884;48.616;12.872;2024-01-15T12:49:53;1.60;99.90
7684;DHT22;3884;48.616;12.872;2024-01-15T12:52:21;1.60;99.90
7684;DHT22;3884;48.616;12.872;2024-01-15T12:54:49;1.60;99.90
7684;DHT22;3884;48.616;12.872;2024-01-15T12:57:17;1.60;99.90
7684;DHT22;3884;48.616;12.872;2024-01-15T12:59:44;1.60;99.90
7684;DHT22;3884;48.616;12.872;2024-01-15T13:02:11;1.60;98.40
7684;DHT22;3884;48.616;12.872;2024-01-15T13:04:38;1.70;99.90
7684;DHT22;3884;48.616;12.872;2024-01-15T13:07:05;1.70;81.20
7684;DHT22;3884;48.616;12.872;2024-01-15T13:09:32;1.70;90.40
7684;DHT22;3884;48.616;12.872;2024-01-15T13:12:00;1.70;92.60
7684;DHT22;3884;48.616;12.872;2024-01-15T13:14:39;1.60;88.10
7684;DHT22;3884;48.616;12.872;2024-01-15T13:17:06;1.60;79.30
7684;DHT22;3884;48.616;12.872;2024-01-15T13:19:33;1.50;77.00
7684;DHT22;3884;48.616;12.872;2024-01-15T13:22:00;1.50;93.40
7684;DHT22;3884;48.616;12.872;2024-01-15T13:24:29;1.50;82.80
7684;DHT22;3884;48.616;12.872;2024-01-15T13:26:56;1.50;80.90
7684;DHT22;3884;48.616;12.872;2024-01-15T13:29:24;1.50;80.80
7684;DHT22;3884;48.616;12.872;2024-01-15T13:31:51;1.40;78.00
7684;DHT22;3884;48.616;12.872;2024-01-15T13:34:18;1.40;81.00
7684;DHT22;3884;48.616;12.872;2024-01-15T13:36:47;1.40;87.10
7684;DHT22;3884;48.616;12.872;2024-01-15T13:39:15;1.40;95.70
7684;DHT22;3884;48.616;12.872;2024-01-15T13:41:45;1.40;99.90
7684;DHT22;3884;48.616;12.872;2024-01-15T13:44:12;1.40;98.90
7684;DHT22;3884;48.616;12.872;2024-01-15T13:46:41;1.30;97.80
7684;DHT22;3884;48.616;12.872;2024-01-15T13:49:08;1.30;95.60
7684;DHT22;3884;48.616;12.872;2024-01-15T13:51:36;1.20;97.70
7684;DHT22;3884;48.616;12.872;2024-01-15T13:54:03;1.20;94.30
7684;DHT22;3884;48.616;12.872;2024-01-15T13:56:30;1.20;95.90
7684;DHT22;3884;48.616;12.872;2024-01-15T13:58:58;1.20;95.70
7684;DHT22;3884;48.616;12.872;2024-01-15T14:01:25;1.20;95.60
7684;DHT22;3884;48.616;12.872;2024-01-15T14:03:54;1.20;94.50
7684;DHT22;3884;48.616;12.872;2024-01-15T14:06:21;1.20;94.00
7684;DHT22;3884;48.616;12.872;2024-01-15T14:08:47;1.20;95.50
7684;DHT22;3884;48.616;12.872;2024-01-15T14:11:14;1.20;95.60
7684;DHT22;3884;48.616;12.872;2024-01-15T14:13:41;1.10;96.90
7684;DHT22;3884;48.616;12.872;2024-01-15T14:16:08;1.10;97.90
7684;DHT22;3884;48.616;12.872;2024-01-15T14:18:36;1.10;97.20
7684;DHT22;3884;48.616;12.872;2024-01-15T14:21:05;1.10;99.70
7684;DHT22;3884;48.616;12.872;2024-01-15T14:23:31;1.10;99.90
7684;DHT22;3884;48.616;12.872;2024-01-15T14:25:59;1.00;99.90
7684;DHT22;3884;48.616;12.872;2024-01-15T14:28:27;0.90;99.90
7684;DHT22;3884;48.616;12.872;2024-01-15T14:30:54;0.90;99.90
7684;DHT22;3884;48.616;12.872;2024-01-15T14:33:24;0.80;99.90
7684;DHT22;3884;48.616;12.872;2024-01-15T14:35:51;0.90;99.90
7684;DHT22;3884;48.616;12.872;2024-01-15T14:38:20;0.90;99.90
7684;DHT22;3884;48.616;12.872;2024-01-15T14:40:47;0.90;99.90
7684;DHT22;3884;48.616;12.872;2024-01-15T14:43:15;0.80;99.90
7684;DHT22;3884;48.616;12.872;2024-01-15T14:45:41;0.80;99.90
7684;DHT22;3884;48.616;12.872;2024-01-15T14:48:09;0.90;99.90
7684;DHT22;3884;48.616;12.872;2024-01-15T14:50:35;0.90;99.90
7684;DHT22;3884;48.616;12.872;2024-01-15T14:53:02;0.80;99.90
7684;DHT22;3884;48.616;12.872;2024-01-15T14:55:31;0.80;99.90
7684;DHT22;3884;48.616;12.872;2024-01-15T14:57:58;0.80;99.90
7684;DHT22;3884;48.616;12.872;2024-01-15T15:00:26;0.80;99.90
7684;DHT22;3884;48.616;12.872;2024-01-15T15:02:53;0.90;99.90
7684;DHT22;3884;48.616;12.872;2024-01-15T15:05:20;0.80;99.90
7684;DHT22;3884;48.616;12.872;2024-01-15T15:07:47;0.80;99.90
7684;DHT22;3884;48.616;12.872;2024-01-15T15:10:14;0.80;1.00
7684;DHT22;3884;48.616;12.872;2024-01-15T15:12:42;0.80;1.00
7684;DHT22;3884;48.616;12.872;2024-01-15T15:15:10;0.70;1.00
7684;DHT22;3884;48.616;12.872;2024-01-15T15:17:38;0.70;53.40
7684;DHT22;3884;48.616;12.872;2024-01-15T15:20:06;0.70;99.90
7684;DHT22;3884;48.616;12.872;2024-01-15T15:22:34;0.50;99.90
7684;DHT22;3884;48.616;12.872;2024-01-15T15:25:01;0.50;99.90
7684;DHT22;3884;48.616;12.872;2024-01-15T15:27:28;0.30;99.90
7684;DHT22;3884;48.616;12.872;2024-01-15T15:29:56;0.20;99.90
7684;DHT22;3884;48.616;12.872;2024-01-15T15:32:23;0.10;79.20
7684;DHT22;3884;48.616;12.872;2024-01-15T15:34:50;0.00;1.00
7684;DHT22;3884;48.616;12.872;2024-01-15T15:37:17;-0.10;99.90
7684;DHT22;3884;48.616;12.872;2024-01-15T15:39:44;0.00;1.00
7684;DHT22;3884;48.616;12.872;2024-01-15T15:42:11;-0.20;28.40
7684;DHT22;3884;48.616;12.872;2024-01-15T15:44:39;-0.30;99.90
7684;DHT22;3884;48.616;12.872;2024-01-15T15:47:13;-0.30;1.00
7684;DHT22;3884;48.616;12.872;2024-01-15T15:49:40;-0.20;1.00
7684;DHT22;3884;48.616;12.872;2024-01-15T15:52:08;-0.20;1.00
7684;DHT22;3884;48.616;12.872;2024-01-15T15:54:34;-0.30;1.00
7684;DHT22;3884;48.616;12.872;2024-01-15T15:57:03;-0.30;1.00
7684;DHT22;3884;48.616;12.872;2024-01-15T15:59:30;-0.20;1.00
7684;DHT22;3884;48.616;12.872;2024-01-15T16:01:57;-0.30;1.00